Time;durP1;ratioP1;P1;durP2;ratioP2;P2;SDS_P1;SDS_P2;PMS_P1;PMS_P2;Temp;Humidity;BMP_temperature;BMP_pressure;BME280_temperature;BME280_humidity;BME280_pressure;Samples;Min_cycle;Max_cycle;Signal;HPM_P1;HPM_P2
2024/04/14 00:00:50;;;;;;;2.07;1.10;;;17.20;99.90;;;;;;5489664;26;20450;-61
2024/04/14 00:03:16;;;;;;;2.10;1.00;;;17.20;1.00;;;;;;5492835;26;20518;-61
2024/04/14 00:05:46;;;;;;;2.03;1.30;;;17.20;72.40;;;;;;5492522;26;20536;-61
2024/04/14 00:08:12;;;;;;;3.13;0.90;;;17.10;99.90;;;;;;5494453;26;20461;-63
2024/04/14 00:10:44;;;;;;;2.10;1.27;;;17.10;99.90;;;;;;5494584;26;20461;-63
2024/04/14 00:13:10;;;;;;;1.60;1.00;;;17.00;99.90;;;;;;5492843;26;20474;-61
2024/04/14 00:15:39;;;;;;;1.63;1.00;;;17.00;99.90;;;;;;5491405;26;20558;-61
2024/04/14 00:18:05;;;;;;;2.07;0.87;;;16.90;1.00;;;;;;5489067;26;20450;-60
2024/04/14 00:20:35;;;;;;;0.80;0.50;;;17.00;1.00;;;;;;5489844;26;20474;-61
2024/04/14 00:23:01;;;;;;;1.50;0.60;;;17.10;99.90;;;;;;5490388;26;20979;-61
2024/04/14 00:25:29;;;;;;;1.47;0.60;;;17.20;99.90;;;;;;5491216;26;20473;-62
2024/04/14 00:27:58;;;;;;;1.43;0.60;;;17.30;99.90;;;;;;5487283;26;20466;-61
2024/04/14 00:30:27;;;;;;;0.90;0.50;;;17.30;99.90;;;;;;5493269;26;20871;-61
2024/04/14 00:32:53;;;;;;;1.07;0.60;;;17.30;99.90;;;;;;5490944;26;20462;-62
2024/04/14 00:35:25;;;;;;;0.80;0.50;;;17.40;99.90;;;;;;5490955;26;20865;-60
2024/04/14 00:37:51;;;;;;;1.20;0.60;;;17.30;99.90;;;;;;5491328;26;20972;-60
2024/04/14 00:40:20;;;;;;;0.80;0.50;;;17.30;99.90;;;;;;5490593;26;20481;-61
2024/04/14 00:42:46;;;;;;;2.00;0.70;;;17.30;99.90;;;;;;5492365;26;20529;-60
2024/04/14 00:45:18;;;;;;;1.00;0.70;;;17.20;99.90;;;;;;5492091;26;20458;-61
2024/04/14 00:47:44;;;;;;;0.90;0.60;;;17.20;99.90;;;;;;5490219;26;20739;-61
2024/04/14 00:50:14;;;;;;;0.90;0.60;;;17.10;99.90;;;;;;5493507;26;20481;-61
2024/04/14 00:52:40;;;;;;;2.03;0.60;;;17.10;99.90;;;;;;5492284;26;20549;-60
2024/04/14 00:55:09;;;;;;;1.67;0.63;;;17.00;99.90;;;;;;5490263;26;20470;-61
2024/04/14 00:57:36;;;;;;;0.80;0.60;;;17.00;99.90;;;;;;5484412;26;20509;-61
2024/04/14 01:00:05;;;;;;;1.13;0.60;;;16.90;99.90;;;;;;5489010;26;20454;-61
2024/04/14 01:02:35;;;;;;;1.67;0.70;;;16.90;99.90;;;;;;5490552;26;20466;-62
2024/04/14 01:05:04;;;;;;;0.77;0.50;;;16.90;99.90;;;;;;5492358;26;20454;-62
2024/04/14 01:07:31;;;;;;;1.10;0.60;;;16.80;99.90;;;;;;5490813;26;20475;-62
2024/04/14 01:10:00;;;;;;;0.90;0.50;;;16.80;99.90;;;;;;5492594;26;20470;-61
2024/04/14 01:12:26;;;;;;;1.03;0.60;;;16.70;99.90;;;;;;5492557;26;20517;-60
2024/04/14 01:14:55;;;;;;;1.10;0.60;;;16.70;99.90;;;;;;5492092;26;20521;-60
2024/04/14 01:17:21;;;;;;;1.40;0.60;;;16.60;99.90;;;;;;5491916;26;20566;-60
2024/04/14 01:19:53;;;;;;;0.83;0.60;;;16.60;99.90;;;;;;5492654;26;20469;-59
2024/04/14 01:22:19;;;;;;;0.90;0.60;;;16.60;99.90;;;;;;5488234;26;20537;-61
2024/04/14 01:24:48;;;;;;;1.30;0.60;;;16.60;99.90;;;;;;5492629;26;20450;-61
2024/04/14 01:27:17;;;;;;;0.90;0.60;;;16.50;99.90;;;;;;5492390;26;20545;-61
2024/04/14 01:29:45;;;;;;;2.50;1.00;;;16.40;99.90;;;;;;5492784;26;20979;-61
2024/04/14 01:32:11;;;;;;;2.10;0.63;;;16.40;99.90;;;;;;5492757;26;20926;-60
2024/04/14 01:34:40;;;;;;;0.90;0.57;;;16.40;99.90;;;;;;5493002;26;20526;-61
2024/04/14 01:37:06;;;;;;;1.00;0.60;;;16.30;99.90;;;;;;5493212;26;20546;-61
2024/04/14 01:39:35;;;;;;;1.60;0.70;;;16.30;99.90;;;;;;5492663;26;20879;-60
2024/04/14 01:42:01;;;;;;;1.07;0.70;;;16.30;1.00;;;;;;5492771;26;20449;-61
2024/04/14 01:44:33;;;;;;;0.80;0.60;;;16.30;1.00;;;;;;5492674;26;20526;-61
2024/04/14 01:46:59;;;;;;;1.10;0.60;;;16.20;1.00;;;;;;5497600;26;20775;-62
2024/04/14 01:49:28;;;;;;;0.90;0.60;;;16.20;1.00;;;;;;5496786;26;20469;-61
2024/04/14 01:51:55;;;;;;;1.20;0.60;;;16.20;1.00;;;;;;5490739;26;20450;-60
2024/04/14 01:54:24;;;;;;;1.00;0.60;;;16.10;1.00;;;;;;5492576;26;20458;-63
2024/04/14 01:56:50;;;;;;;0.97;0.60;;;16.10;1.00;;;;;;5492921;26;20529;-61
2024/04/14 01:59:19;;;;;;;1.67;0.50;;;16.10;1.00;;;;;;5488389;26;20520;-61
2024/04/14 02:01:48;;;;;;;1.77;0.50;;;16.10;99.90;;;;;;5494757;26;20537;-60
2024/04/14 02:04:17;;;;;;;1.13;0.50;;;16.10;99.90;;;;;;5492548;26;20470;-61
2024/04/14 02:06:43;;;;;;;0.90;0.50;;;16.20;99.90;;;;;;5495373;26;20566;-61
2024/04/14 02:09:12;;;;;;;0.70;0.33;;;16.20;99.90;;;;;;5489920;26;20566;-61
2024/04/14 02:11:38;;;;;;;0.70;0.40;;;16.20;99.90;;;;;;5487554;26;20827;-61
2024/04/14 02:14:07;;;;;;;0.57;0.30;;;16.30;99.90;;;;;;5491770;26;20473;-61
2024/04/14 02:16:33;;;;;;;0.63;0.50;;;16.40;99.90;;;;;;5491616;26;20518;-64
2024/04/14 02:19:04;;;;;;;1.07;0.40;;;16.40;96.80;;;;;;5492063;26;20537;-60
2024/04/14 02:21:31;;;;;;;0.53;0.40;;;16.50;67.10;;;;;;5492799;26;20458;-59
2024/04/14 02:24:00;;;;;;;0.80;0.40;;;16.50;42.20;;;;;;5498083;26;20521;-62
2024/04/14 02:26:26;;;;;;;0.47;0.30;;;16.50;25.90;;;;;;5492095;26;20526;-61
2024/04/14 02:28:55;;;;;;;0.67;0.40;;;16.50;12.20;;;;;;5493540;26;20810;-61
2024/04/14 02:31:22;;;;;;;0.70;0.40;;;16.60;1.00;;;;;;5492096;26;20826;-61
2024/04/14 02:33:51;;;;;;;0.70;0.40;;;16.60;1.00;;;;;;5491720;26;20454;-60
2024/04/14 02:36:20;;;;;;;1.10;0.33;;;16.60;1.00;;;;;;5488775;26;20879;-60
2024/04/14 02:38:49;;;;;;;0.63;0.40;;;16.60;1.00;;;;;;5492026;26;20477;-62
2024/04/14 02:41:15;;;;;;;0.87;0.43;;;16.70;1.00;;;;;;5491864;26;20891;-61
2024/04/14 02:43:44;;;;;;;0.90;0.50;;;16.70;1.00;;;;;;5491615;26;20522;-60
2024/04/14 02:46:11;;;;;;;0.60;0.40;;;16.70;1.00;;;;;;5491832;26;20470;-60
2024/04/14 02:48:40;;;;;;;1.03;0.60;;;16.70;1.00;;;;;;5491283;26;20457;-62
2024/04/14 02:51:07;;;;;;;0.57;0.30;;;16.70;1.00;;;;;;5491985;26;20533;-61
2024/04/14 02:53:38;;;;;;;0.90;0.40;;;16.80;1.00;;;;;;5491395;26;20518;-61
2024/04/14 02:56:05;;;;;;;0.67;0.40;;;16.80;1.00;;;;;;5492080;26;20501;-60
2024/04/14 02:58:34;;;;;;;0.60;0.30;;;16.90;1.00;;;;;;5492180;26;20466;-61
2024/04/14 03:01:00;;;;;;;0.70;0.40;;;16.90;1.00;;;;;;5488188;26;20469;-61
2024/04/14 03:03:29;;;;;;;0.60;0.40;;;16.90;1.00;;;;;;5490038;26;20965;-62
2024/04/14 03:05:59;;;;;;;0.60;0.30;;;17.00;1.00;;;;;;5491270;26;20966;-61
2024/04/14 03:08:28;;;;;;;0.60;0.40;;;17.00;1.00;;;;;;5491439;26;20470;-60
2024/04/14 03:10:58;;;;;;;0.77;0.40;;;17.00;1.00;;;;;;5491547;25;20780;-60
2024/04/14 03:13:27;;;;;;;0.53;0.30;;;17.00;1.00;;;;;;5491532;26;20517;-61
2024/04/14 03:15:53;;;;;;;0.63;0.40;;;17.00;1.00;;;;;;5493193;26;20856;-61
2024/04/14 03:18:22;;;;;;;1.20;0.43;;;17.00;1.00;;;;;;5490474;26;20813;-61
2024/04/14 03:20:55;;;;;;;2.23;0.30;;;17.00;1.00;;;;;;5492021;26;20469;-61
2024/04/14 03:23:24;;;;;;;0.60;0.30;;;17.00;1.00;;;;;;5486970;26;20474;-62
2024/04/14 03:25:52;;;;;;;0.63;0.40;;;17.10;1.00;;;;;;5491259;26;20469;-62
2024/04/14 03:28:24;;;;;;;0.80;0.40;;;17.10;1.00;;;;;;5482878;26;20525;-59
2024/04/14 03:30:51;;;;;;;0.47;0.27;;;17.10;1.00;;;;;;5492272;26;20545;-61
2024/04/14 03:33:20;;;;;;;0.50;0.30;;;17.10;1.00;;;;;;5487105;26;20899;-61
2024/04/14 03:35:46;;;;;;;0.70;0.30;;;17.20;1.00;;;;;;5492484;26;21044;-61
2024/04/14 03:38:15;;;;;;;0.80;0.50;;;17.30;1.00;;;;;;5494205;26;20779;-62
2024/04/14 03:40:41;;;;;;;0.83;0.40;;;17.20;1.00;;;;;;5490967;26;20473;-61
2024/04/14 03:43:09;;;;;;;0.57;0.30;;;17.20;1.00;;;;;;5490579;26;20470;-61
2024/04/14 03:45:46;;;;;;;0.60;0.30;;;17.20;1.00;;;;;;5490037;26;20492;-60
2024/04/14 03:48:15;;;;;;;0.60;0.30;;;17.20;1.00;;;;;;5490714;26;20531;-60
2024/04/14 03:50:41;;;;;;;0.50;0.33;;;17.20;1.00;;;;;;5493022;26;20541;-61
2024/04/14 03:53:10;;;;;;;0.70;0.50;;;17.20;1.00;;;;;;5489291;26;20578;-61
2024/04/14 03:55:36;;;;;;;0.70;0.40;;;17.20;1.00;;;;;;5489911;26;20577;-60
2024/04/14 03:58:05;;;;;;;0.60;0.40;;;17.20;1.00;;;;;;5490469;26;20578;-60
2024/04/14 04:00:32;;;;;;;0.90;0.50;;;17.20;1.00;;;;;;5494177;26;20504;-59
2024/04/14 04:03:03;;;;;;;0.53;0.30;;;17.20;1.00;;;;;;5487770;26;20453;-60
2024/04/14 04:05:30;;;;;;;0.70;0.40;;;17.10;1.00;;;;;;5493955;26;20839;-63
2024/04/14 04:07:59;;;;;;;0.60;0.40;;;17.10;1.00;;;;;;5491036;26;20541;-60
2024/04/14 04:10:25;;;;;;;0.40;0.30;;;17.10;1.00;;;;;;5489937;26;20505;-61
2024/04/14 04:12:54;;;;;;;0.60;0.40;;;17.10;1.00;;;;;;5490761;26;20474;-60
2024/04/14 04:15:21;;;;;;;0.97;0.33;;;17.20;1.00;;;;;;5490724;26;20904;-61
2024/04/14 04:17:50;;;;;;;0.60;0.40;;;17.20;1.00;;;;;;5493006;26;20545;-61
2024/04/14 04:20:22;;;;;;;0.87;0.40;;;17.20;1.00;;;;;;5498936;26;20527;-60
2024/04/14 04:22:48;;;;;;;0.80;0.30;;;17.20;1.00;;;;;;5494104;26;20465;-60
2024/04/14 04:25:18;;;;;;;1.10;0.40;;;17.20;1.00;;;;;;5493011;26;20840;-59
2024/04/14 04:27:44;;;;;;;0.40;0.30;;;17.10;1.00;;;;;;5494506;26;20498;-62
2024/04/14 04:30:14;;;;;;;0.80;0.23;;;17.10;1.00;;;;;;5495595;26;20850;-61
2024/04/14 04:32:40;;;;;;;0.50;0.30;;;17.10;1.00;;;;;;5491171;26;20473;-60
2024/04/14 04:35:09;;;;;;;0.70;0.30;;;17.10;1.00;;;;;;5490583;26;21131;-61
2024/04/14 04:37:38;;;;;;;0.70;0.40;;;17.00;1.00;;;;;;5489655;26;20500;-61
2024/04/14 04:40:07;;;;;;;0.57;0.40;;;17.00;1.00;;;;;;5492896;26;20537;-61
2024/04/14 04:42:33;;;;;;;1.20;0.30;;;17.00;1.00;;;;;;5493218;26;20529;-61
2024/04/14 04:45:02;;;;;;;0.90;0.60;;;17.00;1.00;;;;;;5493278;26;20803;-61
2024/04/14 04:47:29;;;;;;;0.90;0.40;;;16.90;1.00;;;;;;5491168;26;20474;-60
2024/04/14 04:49:58;;;;;;;0.50;0.40;;;16.80;1.00;;;;;;5491977;26;20477;-60
2024/04/14 04:52:26;;;;;;;0.60;0.40;;;16.70;1.00;;;;;;5491894;26;20526;-61
2024/04/14 04:54:57;;;;;;;0.70;0.43;;;16.50;1.00;;;;;;5501307;26;20550;-61
2024/04/14 04:57:23;;;;;;;0.80;0.50;;;16.40;1.00;;;;;;5529138;26;20495;-61
2024/04/14 04:59:52;;;;;;;0.80;0.50;;;16.30;1.00;;;;;;5529659;26;20456;-60
2024/04/14 05:02:18;;;;;;;0.90;0.53;;;16.30;1.00;;;;;;5499458;26;20517;-61
2024/04/14 05:04:48;;;;;;;0.70;0.50;;;16.20;1.00;;;;;;5491521;26;20534;-60
2024/04/14 05:07:15;;;;;;;1.30;0.50;;;16.20;1.00;;;;;;5494558;26;20727;-61
2024/04/14 05:09:43;;;;;;;0.70;0.50;;;16.10;11.10;;;;;;5492941;26;20593;-61
2024/04/14 05:12:12;;;;;;;2.03;0.70;;;15.90;65.80;;;;;;5493977;26;20470;-61
2024/04/14 05:14:41;;;;;;;1.50;0.50;;;15.90;99.90;;;;;;5492411;26;20520;-61
2024/04/14 05:17:07;;;;;;;1.30;0.60;;;15.90;99.90;;;;;;5500725;26;20485;-61
2024/04/14 05:19:36;;;;;;;0.90;0.50;;;15.90;99.90;;;;;;5495876;26;20469;-61
2024/04/14 05:22:02;;;;;;;1.63;0.60;;;15.80;99.90;;;;;;5495582;26;20892;-61
2024/04/14 05:24:31;;;;;;;1.30;0.50;;;15.80;99.90;;;;;;5490467;26;20446;-60
2024/04/14 05:26:57;;;;;;;0.80;0.50;;;15.80;99.90;;;;;;5481324;26;20514;-61
2024/04/14 05:29:30;;;;;;;1.40;0.70;;;15.90;99.90;;;;;;5492129;26;20541;-61
2024/04/14 05:31:56;;;;;;;1.00;0.63;;;16.00;99.90;;;;;;5487123;26;20575;-62
2024/04/14 05:34:25;;;;;;;0.80;0.57;;;16.10;99.90;;;;;;5492058;26;20469;-60
2024/04/14 05:36:51;;;;;;;2.10;0.70;;;16.10;99.90;;;;;;5491136;26;20463;-61
2024/04/14 05:39:21;;;;;;;0.73;0.57;;;16.10;99.90;;;;;;5493516;26;20454;-61
2024/04/14 05:41:48;;;;;;;1.00;0.60;;;16.10;99.90;;;;;;5496830;26;20489;-61
2024/04/14 05:44:16;;;;;;;1.53;0.90;;;16.20;1.00;;;;;;5492267;26;20473;-61
2024/04/14 05:46:45;;;;;;;1.50;0.80;;;16.20;1.00;;;;;;5492960;26;20473;-61
2024/04/14 05:49:14;;;;;;;1.27;0.83;;;16.10;1.00;;;;;;5497467;26;20900;-60
2024/04/14 05:51:40;;;;;;;1.20;0.83;;;16.10;1.00;;;;;;5492098;26;20513;-60
2024/04/14 05:54:09;;;;;;;1.07;0.70;;;16.00;1.00;;;;;;5497090;26;20465;-61
2024/04/14 05:56:35;;;;;;;1.90;0.77;;;16.00;27.30;;;;;;5491562;26;20478;-61
2024/04/14 05:59:04;;;;;;;1.23;0.70;;;16.10;1.00;;;;;;5491595;26;20469;-60
2024/04/14 06:01:30;;;;;;;1.30;0.77;;;16.20;1.00;;;;;;5489739;26;20971;-61
2024/04/14 06:04:01;;;;;;;2.50;1.10;;;16.20;1.00;;;;;;5487472;26;20584;-61
2024/04/14 06:06:28;;;;;;;3.13;0.83;;;16.30;1.00;;;;;;5491932;26;20442;-60
2024/04/14 06:08:57;;;;;;;1.00;0.70;;;16.20;1.00;;;;;;5492137;26;20466;-60
2024/04/14 06:11:23;;;;;;;1.87;0.70;;;16.20;1.00;;;;;;5490939;26;20485;-61
2024/04/14 06:13:52;;;;;;;1.10;0.70;;;16.30;1.00;;;;;;5495430;26;20460;-63
2024/04/14 06:16:18;;;;;;;1.70;0.90;;;16.40;1.00;;;;;;5488297;26;20813;-61
2024/04/14 06:18:48;;;;;;;1.40;0.73;;;16.50;1.00;;;;;;5494750;26;20899;-61
2024/04/14 06:21:17;;;;;;;1.20;0.90;;;16.60;1.00;;;;;;5491688;26;20462;-61
2024/04/14 06:23:45;;;;;;;1.60;0.80;;;16.60;1.00;;;;;;5491943;26;20469;-62
2024/04/14 06:26:12;;;;;;;1.10;0.70;;;16.60;1.00;;;;;;5490533;26;20947;-61
2024/04/14 06:28:41;;;;;;;1.83;0.77;;;16.60;1.00;;;;;;5491799;26;20474;-61
2024/04/14 06:31:07;;;;;;;1.20;0.70;;;16.70;1.00;;;;;;5498250;26;20470;-61
2024/04/14 06:33:36;;;;;;;1.00;0.77;;;16.80;1.00;;;;;;5521906;26;20513;-61
2024/04/14 06:36:03;;;;;;;1.30;0.80;;;16.90;1.00;;;;;;5486797;26;20548;-59
2024/04/14 06:38:37;;;;;;;1.40;0.77;;;17.00;1.00;;;;;;5494114;26;20717;-60
2024/04/14 06:41:06;;;;;;;1.17;0.80;;;17.10;1.00;;;;;;5487781;26;20714;-60
2024/04/14 06:43:32;;;;;;;1.97;0.73;;;17.20;99.90;;;;;;5491411;26;20481;-60
2024/04/14 06:46:01;;;;;;;6.67;0.93;;;17.30;99.90;;;;;;5491720;26;20525;-60
2024/04/14 06:48:28;;;;;;;1.00;0.70;;;17.30;99.90;;;;;;5491673;26;20785;-60
2024/04/14 06:50:57;;;;;;;1.50;0.80;;;17.40;99.90;;;;;;5491287;26;20465;-60
2024/04/14 06:53:23;;;;;;;0.80;0.50;;;17.50;99.90;;;;;;5486732;26;20533;-61
2024/04/14 06:55:58;;;;;;;0.73;0.40;;;17.60;99.90;;;;;;5490977;26;20486;-60
2024/04/14 06:58:24;;;;;;;0.87;0.60;;;17.80;99.90;;;;;;5487714;26;20548;-60
2024/04/14 07:00:53;;;;;;;1.33;0.60;;;18.00;99.90;;;;;;5489815;26;20519;-60
2024/04/14 07:03:19;;;;;;;2.40;0.60;;;18.10;99.90;;;;;;5455075;26;20505;-60
2024/04/14 07:05:48;;;;;;;1.33;0.40;;;18.20;99.90;;;;;;5456365;26;20471;-60
2024/04/14 07:08:15;;;;;;;0.90;0.50;;;18.30;44.60;;;;;;5454687;26;20463;-60
2024/04/14 07:10:44;;;;;;;0.67;0.40;;;18.40;8.30;;;;;;5496049;26;20465;-62
2024/04/14 07:13:12;;;;;;;0.60;0.40;;;18.50;1.00;;;;;;5491590;26;20469;-61
2024/04/14 07:15:41;;;;;;;0.63;0.33;;;18.60;1.00;;;;;;5509246;26;20535;-62
2024/04/14 07:18:07;;;;;;;0.60;0.30;;;18.80;1.00;;;;;;5525058;26;20973;-59
2024/04/14 07:20:38;;;;;;;0.70;0.40;;;18.90;1.00;;;;;;5522096;26;20558;-60
2024/04/14 07:23:04;;;;;;;0.97;0.60;;;19.00;1.00;;;;;;5524985;26;20456;-61
2024/04/14 07:25:33;;;;;;;0.80;0.60;;;19.10;1.00;;;;;;5487870;26;20526;-61
2024/04/14 07:27:59;;;;;;;0.67;0.40;;;19.20;1.00;;;;;;5510634;26;20503;-61
2024/04/14 07:30:30;;;;;;;0.70;0.40;;;19.30;1.00;;;;;;5525635;26;20436;-61
2024/04/14 07:32:56;;;;;;;0.80;0.40;;;19.30;1.00;;;;;;5520943;26;20457;-61
2024/04/14 07:35:25;;;;;;;0.67;0.40;;;19.50;1.00;;;;;;5522554;26;20569;-61
2024/04/14 07:37:51;;;;;;;0.60;0.40;;;19.60;1.00;;;;;;5526526;26;20506;-60
2024/04/14 07:40:19;;;;;;;0.60;0.33;;;19.60;1.00;;;;;;5526834;25;20753;-61
2024/04/14 07:42:45;;;;;;;0.70;0.40;;;19.80;1.00;;;;;;5482303;26;20689;-61
2024/04/14 07:45:15;;;;;;;0.70;0.40;;;19.80;1.00;;;;;;5451822;26;20458;-62
2024/04/14 07:47:44;;;;;;;0.50;0.30;;;19.90;1.00;;;;;;5521577;26;20511;-61
2024/04/14 07:50:13;;;;;;;1.17;0.37;;;19.90;1.00;;;;;;5469390;26;20518;-61
2024/04/14 07:52:39;;;;;;;1.23;0.50;;;20.00;1.00;;;;;;5457997;26;20948;-61
2024/04/14 07:55:08;;;;;;;0.80;0.40;;;20.10;1.00;;;;;;5458195;26;20526;-61
2024/04/14 07:57:34;;;;;;;0.90;0.40;;;20.10;1.00;;;;;;5457105;26;20436;-61
2024/04/14 08:00:04;;;;;;;0.80;0.40;;;20.20;1.00;;;;;;5456158;26;20544;-61
2024/04/14 08:02:29;;;;;;;0.80;0.40;;;20.30;1.00;;;;;;5487756;26;20509;-61
2024/04/14 08:05:01;;;;;;;0.90;0.40;;;20.50;1.00;;;;;;5527373;26;20456;-61
2024/04/14 08:07:27;;;;;;;0.60;0.40;;;20.60;1.00;;;;;;5484053;26;20898;-61
2024/04/14 08:09:55;;;;;;;1.30;0.50;;;20.60;1.00;;;;;;5495294;26;20477;-61
2024/04/14 08:12:25;;;;;;;0.63;0.40;;;20.60;1.00;;;;;;5492859;26;20457;-61
2024/04/14 08:14:51;;;;;;;0.70;0.30;;;20.60;1.00;;;;;;5492508;26;20842;-61
2024/04/14 08:17:19;;;;;;;0.57;0.37;;;20.70;1.00;;;;;;5494220;26;20887;-62
2024/04/14 08:19:45;;;;;;;1.07;0.50;;;20.80;1.00;;;;;;5493416;26;20604;-62
2024/04/14 08:22:16;;;;;;;0.90;0.40;;;20.80;1.00;;;;;;5493432;26;20901;-62
2024/04/14 08:24:42;;;;;;;0.70;0.40;;;20.80;1.00;;;;;;5496126;26;20504;-61
2024/04/14 08:27:11;;;;;;;0.60;0.40;;;20.90;1.00;;;;;;5465754;26;20454;-61
2024/04/14 08:29:37;;;;;;;0.60;0.40;;;21.00;1.00;;;;;;5456682;26;20519;-61
2024/04/14 08:32:07;;;;;;;1.10;0.50;;;21.20;1.00;;;;;;5482756;26;20541;-64
2024/04/14 08:34:33;;;;;;;1.13;0.60;;;21.30;1.00;;;;;;5525430;26;20521;-61
2024/04/14 08:37:01;;;;;;;1.13;0.70;;;21.40;1.00;;;;;;5523711;26;21035;-61
2024/04/14 08:39:30;;;;;;;0.77;0.50;;;21.50;1.00;;;;;;5526706;26;20483;-61
2024/04/14 08:41:59;;;;;;;0.70;0.50;;;21.60;1.00;;;;;;5527734;26;20822;-61
2024/04/14 08:44:26;;;;;;;0.50;0.40;;;21.60;1.00;;;;;;5526855;26;20456;-60
2024/04/14 08:46:56;;;;;;;0.70;0.50;;;21.60;1.00;;;;;;5521943;26;20473;-61
2024/04/14 08:49:23;;;;;;;0.80;0.60;;;21.70;1.00;;;;;;5491848;26;20537;-61
2024/04/14 08:51:53;;;;;;;0.93;0.80;;;21.70;1.00;;;;;;5491973;26;20459;-61
2024/04/14 08:54:19;;;;;;;0.70;0.50;;;21.80;1.00;;;;;;5454984;26;20948;-63
2024/04/14 08:56:57;;;;;;;0.70;0.40;;;21.90;1.00;;;;;;5476397;26;20822;-61
2024/04/14 08:59:24;;;;;;;0.70;0.40;;;22.00;1.00;;;;;;5461641;26;20458;-60
2024/04/14 09:01:53;;;;;;;0.80;0.50;;;22.10;1.00;;;;;;5505874;26;20465;-60
2024/04/14 09:04:20;;;;;;;0.73;0.47;;;22.20;1.00;;;;;;5492533;26;20907;-61
2024/04/14 09:06:51;;;;;;;0.80;0.50;;;22.30;1.00;;;;;;5493816;26;20442;-60
2024/04/14 09:09:18;;;;;;;0.60;0.50;;;22.30;1.00;;;;;;5515163;26;20542;-60
2024/04/14 09:11:55;;;;;;;0.77;0.50;;;22.50;1.00;;;;;;5530895;26;20575;-59
2024/04/14 09:14:22;;;;;;;0.60;0.43;;;22.50;1.00;;;;;;5522057;26;20518;-61
2024/04/14 09:16:51;;;;;;;1.17;0.60;;;22.40;1.00;;;;;;5493381;26;20826;-61
2024/04/14 09:19:17;;;;;;;0.60;0.40;;;22.40;1.00;;;;;;5493043;26;20469;-61
2024/04/14 09:21:46;;;;;;;0.80;0.60;;;22.50;1.00;;;;;;5493562;26;20433;-61
2024/04/14 09:24:12;;;;;;;0.80;0.50;;;22.50;1.00;;;;;;5511563;26;20456;-61
2024/04/14 09:26:43;;;;;;;0.60;0.40;;;22.50;1.00;;;;;;5530206;26;20604;-61
2024/04/14 09:29:11;;;;;;;1.73;0.50;;;22.60;1.00;;;;;;5502698;26;20466;-61
2024/04/14 09:31:40;;;;;;;0.70;0.50;;;22.60;1.00;;;;;;5492074;26;20729;-61
2024/04/14 09:34:07;;;;;;;0.63;0.50;;;22.60;1.00;;;;;;5491878;26;20446;-61
2024/04/14 09:36:35;;;;;;;0.90;0.60;;;22.70;1.00;;;;;;5493306;26;20518;-61
2024/04/14 09:39:03;;;;;;;0.80;0.50;;;22.80;1.00;;;;;;5493341;26;20449;-61
2024/04/14 09:41:32;;;;;;;2.20;0.60;;;23.00;1.00;;;;;;5517208;26;20528;-61
2024/04/14 09:43:59;;;;;;;0.80;0.50;;;23.00;1.00;;;;;;5528643;26;20458;-61
2024/04/14 09:46:32;;;;;;;0.80;0.60;;;23.00;1.00;;;;;;5506748;26;20466;-61
2024/04/14 09:49:00;;;;;;;1.53;0.70;;;23.10;1.00;;;;;;5523704;26;20524;-61
2024/04/14 09:51:29;;;;;;;1.00;0.50;;;23.10;1.00;;;;;;5529956;26;20489;-61
2024/04/14 09:53:58;;;;;;;0.97;0.50;;;23.00;1.00;;;;;;5527349;26;20444;-61
2024/04/14 09:56:27;;;;;;;0.70;0.50;;;23.10;1.00;;;;;;5529501;26;20834;-61
2024/04/14 09:58:54;;;;;;;0.70;0.57;;;23.30;1.00;;;;;;5528137;26;20477;-61
2024/04/14 10:01:27;;;;;;;0.70;0.40;;;23.50;1.00;;;;;;5513396;26;20518;-61
2024/04/14 10:04:00;;;;;;;0.60;0.50;;;23.50;1.00;;;;;;5491072;26;20502;-61
2024/04/14 10:06:30;;;;;;;0.90;0.60;;;23.80;1.00;;;;;;5491258;26;20442;-62
2024/04/14 10:08:57;;;;;;;0.80;0.40;;;24.10;1.00;;;;;;5489405;26;20930;-61
2024/04/14 10:11:25;;;;;;;1.10;0.40;;;24.30;1.00;;;;;;5487547;26;20473;-61
2024/04/14 10:13:54;;;;;;;0.70;0.57;;;24.40;1.00;;;;;;5453423;26;20470;-60
2024/04/14 10:16:24;;;;;;;0.70;0.50;;;24.60;1.00;;;;;;5488040;26;20466;-61
2024/04/14 10:18:50;;;;;;;0.70;0.40;;;24.80;1.00;;;;;;5450014;26;20535;-61
2024/04/14 10:21:24;;;;;;;1.33;0.40;;;25.00;1.00;;;;;;5445691;26;20484;-61
2024/04/14 10:23:52;;;;;;;0.70;0.40;;;25.00;1.00;;;;;;5418623;26;20523;-61
2024/04/14 10:26:21;;;;;;;1.20;0.60;;;25.10;1.00;;;;;;5419848;26;20449;-60
2024/04/14 10:28:49;;;;;;;0.50;0.47;;;25.30;1.00;;;;;;5419373;26;20572;-61
2024/04/14 10:31:27;;;;;;;0.60;0.40;;;25.50;1.00;;;;;;5460050;26;20779;-62
2024/04/14 10:34:06;;;;;;;1.27;0.50;;;25.50;1.00;;;;;;5432883;26;20506;-61
2024/04/14 10:36:39;;;;;;;0.70;0.50;;;25.40;1.00;;;;;;5421462;26;20545;-61
2024/04/14 10:39:06;;;;;;;0.80;0.40;;;25.40;1.00;;;;;;5438797;26;20893;-61
2024/04/14 10:41:37;;;;;;;0.60;0.30;;;25.50;1.00;;;;;;5453368;26;20474;-61
2024/04/14 10:44:13;;;;;;;1.30;0.60;;;25.60;1.00;;;;;;5482339;26;20508;-62
2024/04/14 10:46:42;;;;;;;0.60;0.50;;;25.80;1.00;;;;;;5484196;26;20453;-61
2024/04/14 10:49:09;;;;;;;0.90;0.50;;;26.00;1.00;;;;;;5490318;26;20959;-61
2024/04/14 10:51:40;;;;;;;0.70;0.47;;;26.20;1.00;;;;;;5463727;26;20471;-61
2024/04/14 10:54:06;;;;;;;1.07;0.60;;;26.40;1.00;;;;;;5477394;26;20470;-60
2024/04/14 10:56:35;;;;;;;0.90;0.60;;;26.50;1.00;;;;;;5469876;26;21030;-60
2024/04/14 10:59:01;;;;;;;1.10;0.60;;;26.40;1.00;;;;;;5424826;26;20460;-61
2024/04/14 11:01:30;;;;;;;0.70;0.53;;;26.10;1.00;;;;;;5435647;26;20475;-61
2024/04/14 11:03:57;;;;;;;0.93;0.47;;;26.00;1.00;;;;;;5477156;26;20468;-60
2024/04/14 11:06:26;;;;;;;1.60;0.90;;;26.00;1.00;;;;;;5432022;26;20582;-61
2024/04/14 11:08:55;;;;;;;1.17;0.40;;;25.70;1.00;;;;;;5433298;26;20768;-62
2024/04/14 11:11:23;;;;;;;0.70;0.50;;;25.60;1.00;;;;;;5425421;26;20451;-62
2024/04/14 11:13:49;;;;;;;0.90;0.50;;;25.70;1.00;;;;;;5490684;26;20457;-63
2024/04/14 11:16:19;;;;;;;0.70;0.50;;;25.90;1.00;;;;;;5491138;26;20928;-61
2024/04/14 11:18:46;;;;;;;0.80;0.50;;;25.90;1.00;;;;;;5499124;26;20468;-62
2024/04/14 11:21:19;;;;;;;1.00;0.40;;;25.90;1.00;;;;;;5519254;26;20492;-62
2024/04/14 11:23:48;;;;;;;0.80;0.50;;;26.10;1.00;;;;;;5528122;26;20462;-61
2024/04/14 11:26:19;;;;;;;4.20;0.60;;;26.20;1.00;;;;;;5531271;26;20792;-62
2024/04/14 11:28:45;;;;;;;1.00;0.50;;;26.30;1.00;;;;;;5529872;26;20495;-61
2024/04/14 11:31:14;;;;;;;0.80;0.50;;;26.00;1.00;;;;;;5517814;26;20461;-61
2024/04/14 11:33:42;;;;;;;0.90;0.50;;;26.30;1.00;;;;;;5491512;26;20449;-62
2024/04/14 11:36:13;;;;;;;0.83;0.50;;;26.40;1.00;;;;;;5491608;26;20507;-62
2024/04/14 11:38:39;;;;;;;1.37;0.60;;;26.40;1.00;;;;;;5493266;26;20885;-62
2024/04/14 11:41:08;;;;;;;0.70;0.50;;;26.60;1.00;;;;;;5487952;26;20529;-62
2024/04/14 11:43:37;;;;;;;0.80;0.50;;;26.70;1.00;;;;;;5491420;26;20518;-62
2024/04/14 11:46:06;;;;;;;0.90;0.57;;;26.50;1.00;;;;;;5498405;26;20569;-63
2024/04/14 11:48:32;;;;;;;0.80;0.50;;;26.70;1.00;;;;;;5493248;26;21009;-62
2024/04/14 11:51:01;;;;;;;1.73;0.50;;;26.90;1.00;;;;;;5492622;26;20457;-62
2024/04/14 11:53:27;;;;;;;0.63;0.40;;;27.00;1.00;;;;;;5491908;26;20757;-62
2024/04/14 11:55:55;;;;;;;0.80;0.60;;;27.00;1.00;;;;;;5490835;26;20525;-61
2024/04/14 11:58:25;;;;;;;0.77;0.50;;;26.90;1.00;;;;;;5492794;26;20899;-61
2024/04/14 12:00:57;;;;;;;0.90;0.60;;;27.20;1.00;;;;;;5501266;26;20563;-61
2024/04/14 12:03:23;;;;;;;1.20;0.70;;;27.20;1.00;;;;;;5496265;26;20723;-62
2024/04/14 12:05:52;;;;;;;0.80;0.50;;;26.90;1.00;;;;;;5520901;26;20579;-62
2024/04/14 12:08:20;;;;;;;1.67;0.53;;;26.80;1.00;;;;;;5526304;26;20452;-61
2024/04/14 12:10:48;;;;;;;0.70;0.60;;;26.90;1.00;;;;;;5485802;26;20548;-62
2024/04/14 12:13:15;;;;;;;0.70;0.50;;;27.10;1.00;;;;;;5505084;26;20470;-62
2024/04/14 12:15:45;;;;;;;1.17;0.43;;;26.80;1.00;;;;;;5491854;26;20867;-62
2024/04/14 12:18:13;;;;;;;0.80;0.43;;;26.80;1.00;;;;;;5501587;26;20473;-61
2024/04/14 12:20:42;;;;;;;1.43;0.50;;;27.10;1.00;;;;;;5497354;26;20531;-61
2024/04/14 12:23:08;;;;;;;0.70;0.47;;;27.30;1.00;;;;;;5521640;26;20448;-62
2024/04/14 12:25:37;;;;;;;0.57;0.40;;;27.40;1.00;;;;;;5518628;26;20478;-60
2024/04/14 12:28:03;;;;;;;0.70;0.40;;;27.40;1.00;;;;;;5528231;26;20457;-61
2024/04/14 12:30:35;;;;;;;0.50;0.40;;;27.50;1.00;;;;;;5526720;26;20512;-62
2024/04/14 12:33:03;;;;;;;0.50;0.40;;;27.40;1.00;;;;;;5497996;26;20812;-62
2024/04/14 12:35:34;;;;;;;3.70;0.60;;;27.50;1.00;;;;;;5511209;26;20565;-61
2024/04/14 12:38:01;;;;;;;1.50;0.70;;;27.10;1.00;;;;;;5478954;26;20450;-61
2024/04/14 12:40:29;;;;;;;1.20;0.50;;;26.70;1.00;;;;;;5489925;26;20490;-61
2024/04/14 12:42:57;;;;;;;0.60;0.40;;;26.70;1.00;;;;;;5483228;26;20529;-61
2024/04/14 12:45:26;;;;;;;2.73;0.50;;;26.90;1.00;;;;;;5491238;26;20524;-63
2024/04/14 12:47:52;;;;;;;1.50;0.40;;;27.00;1.00;;;;;;5475587;26;20846;-63
2024/04/14 12:50:21;;;;;;;0.73;0.40;;;26.80;1.00;;;;;;5464737;26;20466;-62
2024/04/14 12:52:50;;;;;;;0.60;0.40;;;26.90;1.00;;;;;;5502714;26;20460;-62
2024/04/14 12:55:19;;;;;;;0.60;0.40;;;26.80;1.00;;;;;;5504305;26;20476;-63
2024/04/14 12:57:45;;;;;;;0.60;0.40;;;26.90;1.00;;;;;;5486874;26;20580;-63
2024/04/14 13:00:14;;;;;;;0.60;0.40;;;27.10;1.00;;;;;;5484779;26;20531;-62